createdAt,value
2023-03-10T00:01:20.593Z,0.15
2023-03-10T00:03:48.158Z,0.13
2023-03-10T00:06:18.744Z,0.11
2023-03-10T00:08:46.130Z,0.11
2023-03-10T00:11:14.394Z,0.12
2023-03-10T00:13:41.875Z,0.15
2023-03-10T00:16:16.548Z,0.17
2023-03-10T00:18:43.941Z,0.16
2023-03-10T00:21:15.992Z,0.08
2023-03-10T00:23:43.249Z,0.18
2023-03-10T00:26:13.111Z,0.16
2023-03-10T00:28:40.156Z,0.17
2023-03-10T00:31:11.228Z,0.21
2023-03-10T00:33:39.041Z,0.21
2023-03-10T00:36:06.247Z,0.24
2023-03-10T00:38:34.287Z,0.26
2023-03-10T00:41:03.727Z,0.25
2023-03-10T00:43:31.200Z,0.30
2023-03-10T00:45:58.817Z,0.26
2023-03-10T00:48:26.253Z,0.29
2023-03-10T00:50:53.545Z,0.31
2023-03-10T00:53:20.762Z,0.26
2023-03-10T00:56:04.662Z,0.28
2023-03-10T00:58:33.167Z,0.27
2023-03-10T01:01:01.161Z,0.29
2023-03-10T01:03:29.525Z,0.16
2023-03-10T01:05:57.538Z,0.24
2023-03-10T01:08:25.008Z,0.28
2023-03-10T01:10:52.130Z,0.29
2023-03-10T01:13:19.906Z,0.27
2023-03-10T01:15:51.162Z,0.26
2023-03-10T01:18:20.357Z,0.29
2023-03-10T01:20:48.257Z,0.27
2023-03-10T01:23:21.004Z,0.24
2023-03-10T01:25:49.754Z,0.25
2023-03-10T01:28:19.082Z,0.27
2023-03-10T01:30:46.634Z,0.28
2023-03-10T01:33:15.379Z,0.30
2023-03-10T01:35:42.986Z,0.26
2023-03-10T01:38:11.820Z,0.31
2023-03-10T01:40:39.313Z,0.31
2023-03-10T01:43:17.750Z,0.33
2023-03-10T01:45:47.663Z,0.31
2023-03-10T01:48:17.978Z,0.28
2023-03-10T01:50:48.281Z,0.29
2023-03-10T01:53:19.429Z,0.33
2023-03-10T01:55:50.688Z,0.33
2023-03-10T01:58:20.252Z,0.30
2023-03-10T02:00:47.402Z,0.32
2023-03-10T02:03:20.553Z,0.33
2023-03-10T02:05:56.351Z,0.30
2023-03-10T02:08:25.519Z,0.31
2023-03-10T02:10:53.129Z,0.27
2023-03-10T02:13:21.766Z,0.31
2023-03-10T02:15:49.779Z,0.31
2023-03-10T02:18:18.369Z,0.34
2023-03-10T02:21:10.759Z,0.34
2023-03-10T02:24:01.635Z,0.33
2023-03-10T02:26:53.475Z,0.34
2023-03-10T02:29:45.441Z,0.30
2023-03-10T02:32:21.402Z,0.24
2023-03-10T02:34:48.511Z,0.27
2023-03-10T02:37:25.328Z,0.28
2023-03-10T02:39:54.525Z,0.28
2023-03-10T02:42:23.413Z,0.22
2023-03-10T02:44:50.715Z,0.10
2023-03-10T02:47:17.833Z,0.22
2023-03-10T02:49:45.241Z,0.18
2023-03-10T02:52:35.105Z,0.18
2023-03-10T02:55:02.290Z,0.17
2023-03-10T02:57:29.508Z,0.22
2023-03-10T02:59:56.638Z,0.21
2023-03-10T03:02:23.834Z,0.14
2023-03-10T03:04:50.871Z,0.20
2023-03-10T03:07:18.049Z,0.17
2023-03-10T03:09:45.198Z,0.22
2023-03-10T03:12:12.514Z,0.20
2023-03-10T03:14:39.591Z,0.21
2023-03-10T03:17:07.410Z,0.25
2023-03-10T03:19:34.833Z,0.24
2023-03-10T03:22:02.099Z,0.24
2023-03-10T03:24:29.838Z,0.24
2023-03-10T03:26:56.963Z,0.24
2023-03-10T03:29:26.622Z,0.22
2023-03-10T03:31:54.204Z,0.20
2023-03-10T03:34:25.310Z,0.24
2023-03-10T03:36:55.835Z,0.26
2023-03-10T03:39:28.717Z,0.27
2023-03-10T03:41:59.494Z,0.29
2023-03-10T03:44:31.468Z,0.30
2023-03-10T03:46:58.694Z,0.33
2023-03-10T03:49:26.628Z,0.30
2023-03-10T03:51:54.006Z,0.33
2023-03-10T03:54:23.315Z,0.28
2023-03-10T03:56:50.443Z,0.32
2023-03-10T03:59:17.794Z,0.36
2023-03-10T04:01:45.139Z,0.38
2023-03-10T04:04:12.393Z,0.36
2023-03-10T04:06:40.002Z,0.37
2023-03-10T04:09:10.644Z,0.35
2023-03-10T04:11:38.638Z,0.33
2023-03-10T04:14:06.170Z,0.35
2023-03-10T04:16:33.588Z,0.37
2023-03-10T04:19:02.341Z,0.32
2023-03-10T04:21:30.046Z,0.35
2023-03-10T04:23:58.701Z,0.36
2023-03-10T04:26:29.188Z,0.37
2023-03-10T04:28:58.242Z,0.33
2023-03-10T04:31:26.926Z,0.38
2023-03-10T04:33:54.212Z,0.37
2023-03-10T04:36:22.034Z,0.35
2023-03-10T04:38:53.445Z,0.41
2023-03-10T04:41:23.252Z,0.42
2023-03-10T04:43:50.483Z,0.42
2023-03-10T04:46:18.817Z,0.43
2023-03-10T04:48:46.557Z,0.41
2023-03-10T04:51:14.534Z,0.39
2023-03-10T04:53:47.792Z,0.36
2023-03-10T04:56:15.479Z,0.41
2023-03-10T04:58:43.423Z,0.45
2023-03-10T05:01:12.894Z,0.43
2023-03-10T05:03:44.862Z,0.37
2023-03-10T05:06:15.751Z,0.43
2023-03-10T05:08:46.320Z,0.26
2023-03-10T05:11:14.270Z,0.41
2023-03-10T05:13:41.703Z,0.43
2023-03-10T05:16:17.608Z,0.47
2023-03-10T05:18:46.857Z,0.43
2023-03-10T05:21:17.131Z,0.50
2023-03-10T05:23:45.893Z,0.52
2023-03-10T05:26:14.758Z,0.50
2023-03-10T05:28:42.407Z,0.50
2023-03-10T05:31:12.671Z,0.53
2023-03-10T05:33:43.002Z,0.51
2023-03-10T05:36:13.172Z,0.57
2023-03-10T05:38:41.341Z,0.50
2023-03-10T05:41:12.809Z,0.49
2023-03-10T05:43:40.820Z,0.44
2023-03-10T05:46:09.413Z,0.53
2023-03-10T05:48:43.388Z,0.53
2023-03-10T05:51:12.839Z,0.59
2023-03-10T05:53:41.068Z,0.57
2023-03-10T05:56:17.588Z,0.59
2023-03-10T05:58:47.663Z,0.60
2023-03-10T06:01:18.220Z,0.60
2023-03-10T06:03:45.427Z,0.58
2023-03-10T06:06:12.977Z,0.63
2023-03-10T06:08:40.477Z,0.66
2023-03-10T06:11:07.609Z,0.65
2023-03-10T06:13:35.154Z,0.62
2023-03-10T06:16:04.715Z,0.68
2023-03-10T06:18:32.280Z,0.67
2023-03-10T06:20:59.359Z,0.68
2023-03-10T06:23:26.921Z,0.66
2023-03-10T06:26:07.102Z,0.69
2023-03-10T06:28:36.912Z,0.70
2023-03-10T06:31:09.919Z,0.72
2023-03-10T06:33:37.236Z,0.73
2023-03-10T06:36:05.207Z,0.76
2023-03-10T06:38:32.416Z,0.74
2023-03-10T06:40:59.554Z,0.77
2023-03-10T06:43:26.730Z,0.74
2023-03-10T06:45:53.856Z,0.81
2023-03-10T06:48:20.916Z,0.77
2023-03-10T06:50:50.642Z,0.83
2023-03-10T06:53:20.211Z,0.82
2023-03-10T06:56:00.618Z,0.86
2023-03-10T06:58:28.847Z,0.88
2023-03-10T07:00:56.329Z,0.90
2023-03-10T07:03:25.204Z,0.92
2023-03-10T07:05:56.608Z,0.92
2023-03-10T07:08:23.673Z,0.92
2023-03-10T07:10:51.819Z,0.91
2023-03-10T07:13:19.032Z,0.98
2023-03-10T07:15:46.404Z,1.01
2023-03-10T07:18:14.269Z,1.00
2023-03-10T07:20:43.206Z,1.02
2023-03-10T07:23:10.349Z,1.05
2023-03-10T07:25:38.478Z,1.06
2023-03-10T07:28:06.464Z,1.05
2023-03-10T07:30:34.489Z,1.04
2023-03-10T07:33:01.583Z,1.07
2023-03-10T07:35:28.815Z,1.09
2023-03-10T07:37:55.902Z,1.09
2023-03-10T07:40:25.262Z,1.10
2023-03-10T07:42:54.903Z,1.12
2023-03-10T07:45:23.690Z,1.13
2023-03-10T07:47:52.034Z,1.15
2023-03-10T07:50:20.544Z,1.15
2023-03-10T07:52:49.278Z,1.14
2023-03-10T07:55:16.650Z,1.15
2023-03-10T07:57:43.793Z,1.15
2023-03-10T08:00:11.366Z,1.15
2023-03-10T08:02:41.839Z,1.14
2023-03-10T08:05:11.052Z,1.13
2023-03-10T08:07:38.322Z,1.13
2023-03-10T08:10:06.677Z,1.14
2023-03-10T08:12:34.391Z,1.13
2023-03-10T08:15:01.516Z,1.15
2023-03-10T08:17:33.657Z,1.15
2023-03-10T08:20:01.472Z,1.20
2023-03-10T08:22:28.927Z,1.19
2023-03-10T08:24:56.549Z,1.22
2023-03-10T08:27:23.650Z,1.21
2023-03-10T08:29:50.717Z,1.25
2023-03-10T08:32:20.079Z,1.24
2023-03-10T08:34:47.555Z,1.20
2023-03-10T08:37:15.078Z,1.23
2023-03-10T08:39:42.204Z,1.23
2023-03-10T08:42:13.343Z,1.22
2023-03-10T08:44:40.808Z,1.26
2023-03-10T08:47:08.658Z,1.28
2023-03-10T08:49:36.425Z,1.28
2023-03-10T08:52:03.966Z,1.31
2023-03-10T08:54:32.623Z,1.33
2023-03-10T08:57:00.160Z,1.33
2023-03-10T08:59:27.563Z,1.31
2023-03-10T09:01:54.744Z,1.37
2023-03-10T09:04:21.822Z,1.40
2023-03-10T09:06:49.039Z,1.43
2023-03-10T09:09:16.437Z,1.46
2023-03-10T09:11:43.750Z,1.47
2023-03-10T09:14:12.522Z,1.48
2023-03-10T09:16:40.676Z,1.49
2023-03-10T09:19:08.239Z,1.49
2023-03-10T09:21:35.492Z,1.53
2023-03-10T09:24:03.392Z,1.55
2023-03-10T09:26:31.344Z,1.57
2023-03-10T09:28:58.396Z,1.60
2023-03-10T09:31:30.298Z,1.59
2023-03-10T09:33:57.763Z,1.64
2023-03-10T09:36:25.172Z,1.68
2023-03-10T09:38:52.735Z,1.72
2023-03-10T09:41:47.772Z,1.76
2023-03-10T09:44:31.022Z,1.81
2023-03-10T09:47:19.650Z,1.84
2023-03-10T09:50:16.252Z,1.85
2023-03-10T09:52:55.706Z,1.80
2023-03-10T09:55:29.832Z,1.84
2023-03-10T09:57:58.275Z,1.83
2023-03-10T10:00:33.369Z,1.84
2023-03-10T10:03:09.146Z,1.86
2023-03-10T10:05:39.041Z,1.83
2023-03-10T10:08:20.327Z,1.88
2023-03-10T10:10:53.596Z,1.91
2023-03-10T10:13:23.415Z,1.95
2023-03-10T10:16:24.445Z,1.97
2023-03-10T10:19:20.438Z,2.01
2023-03-10T10:22:13.912Z,2.04
2023-03-10T10:24:41.250Z,2.10
2023-03-10T10:27:08.457Z,2.17
2023-03-10T10:29:38.440Z,2.25
2023-03-10T10:32:07.948Z,2.30
2023-03-10T10:34:36.590Z,2.35
2023-03-10T10:37:20.456Z,2.40
2023-03-10T10:39:50.025Z,2.45
2023-03-10T10:42:30.581Z,2.55
2023-03-10T10:45:21.755Z,2.64
2023-03-10T10:47:51.385Z,2.70
2023-03-10T10:50:20.248Z,2.75
2023-03-10T10:52:50.632Z,2.80
2023-03-10T10:55:36.014Z,2.87
2023-03-10T10:58:06.903Z,2.91
2023-03-10T11:00:39.817Z,2.92
2023-03-10T11:03:40.823Z,2.98
2023-03-10T11:06:40.165Z,3.06
2023-03-10T11:09:13.512Z,3.14
2023-03-10T11:12:02.434Z,3.22
2023-03-10T11:14:41.373Z,3.30
2023-03-10T11:17:27.450Z,3.38
2023-03-10T11:20:25.257Z,3.48
2023-03-10T11:22:58.357Z,3.62
2023-03-10T11:25:52.177Z,3.81
2023-03-10T11:28:47.520Z,3.98
2023-03-10T11:31:37.136Z,4.07
2023-03-10T11:34:22.835Z,4.18
2023-03-10T11:37:09.151Z,4.25
2023-03-10T11:39:43.399Z,4.31
2023-03-10T11:42:34.719Z,4.30
2023-03-10T11:45:23.310Z,4.34
2023-03-10T11:48:06.728Z,4.37
2023-03-10T11:50:36.757Z,4.42
2023-03-10T11:53:19.358Z,4.48
2023-03-10T11:55:48.606Z,4.54
2023-03-10T11:58:24.393Z,4.52
2023-03-10T12:00:54.431Z,4.63
2023-03-10T12:03:31.623Z,4.64
2023-03-10T12:06:00.975Z,4.68
2023-03-10T12:08:34.756Z,4.67
2023-03-10T12:11:05.114Z,4.70
2023-03-10T12:13:46.512Z,4.67
2023-03-10T12:16:22.486Z,4.65
2023-03-10T12:18:49.876Z,4.62
2023-03-10T12:21:28.860Z,4.61
2023-03-10T12:23:58.405Z,4.62
2023-03-10T12:26:37.922Z,4.60
2023-03-10T12:29:32.948Z,4.62
2023-03-10T12:32:00.467Z,4.68
2023-03-10T12:34:31.697Z,4.76
2023-03-10T12:37:11.137Z,4.82
2023-03-10T12:39:44.897Z,4.88
2023-03-10T12:42:30.230Z,4.92
2023-03-10T12:45:11.610Z,4.96
2023-03-10T12:48:03.649Z,5.00
2023-03-10T12:50:47.526Z,5.05
2023-03-10T12:53:23.797Z,5.08
2023-03-10T12:56:12.902Z,5.10
2023-03-10T12:58:46.022Z,5.11
2023-03-10T13:01:17.610Z,5.17
2023-03-10T13:03:52.613Z,5.12
2023-03-10T13:06:22.332Z,5.11
2023-03-10T13:08:58.859Z,5.07
2023-03-10T13:11:40.088Z,5.01
2023-03-10T13:14:20.886Z,4.96
2023-03-10T13:17:00.734Z,4.89
2023-03-10T13:19:30.781Z,4.83
2023-03-10T13:21:58.526Z,4.75
2023-03-10T13:24:30.492Z,4.74
2023-03-10T13:27:12.823Z,4.69
2023-03-10T13:29:41.550Z,4.66
2023-03-10T13:32:19.181Z,4.62
2023-03-10T13:34:46.263Z,4.57
2023-03-10T13:37:13.330Z,4.58
2023-03-10T13:39:40.479Z,4.60
2023-03-10T13:42:42.838Z,4.60
2023-03-10T13:45:22.176Z,4.63
2023-03-10T13:47:50.838Z,4.67
2023-03-10T13:50:18.439Z,4.71
2023-03-10T13:52:57.925Z,4.81
2023-03-10T13:55:25.762Z,4.92
2023-03-10T13:57:54.528Z,5.01
2023-03-10T14:00:24.722Z,5.07
2023-03-10T14:02:52.972Z,5.11
2023-03-10T14:05:41.718Z,5.14
2023-03-10T14:08:20.320Z,5.15
2023-03-10T14:10:47.684Z,5.15
2023-03-10T14:13:40.503Z,5.16
2023-03-10T14:16:08.193Z,5.17
2023-03-10T14:18:37.816Z,5.23
2023-03-10T14:21:52.459Z,5.27
2023-03-10T14:24:28.140Z,5.32
2023-03-10T14:27:00.768Z,5.36
2023-03-10T14:29:27.913Z,5.39
2023-03-10T14:31:55.010Z,5.37
2023-03-10T14:34:23.625Z,5.39
2023-03-10T14:36:50.643Z,5.34
2023-03-10T14:39:18.112Z,5.33
2023-03-10T14:41:45.408Z,5.29
2023-03-10T14:44:12.655Z,5.27
2023-03-10T14:46:39.922Z,5.25
2023-03-10T14:49:13.342Z,5.24
2023-03-10T14:51:40.389Z,5.21
2023-03-10T14:54:27.750Z,5.19
2023-03-10T14:57:01.690Z,5.18
2023-03-10T14:59:29.209Z,5.19
2023-03-10T15:01:57.506Z,5.18
2023-03-10T15:04:24.677Z,5.17
2023-03-10T15:06:51.859Z,5.19
2023-03-10T15:09:20.016Z,5.16
2023-03-10T15:11:47.320Z,5.19
2023-03-10T15:14:18.458Z,5.20
2023-03-10T15:16:45.954Z,5.20
2023-03-10T15:19:22.968Z,5.17
2023-03-10T15:21:50.152Z,5.10
2023-03-10T15:24:17.507Z,5.04
2023-03-10T15:26:45.038Z,4.97
2023-03-10T15:29:17.799Z,4.92
2023-03-10T15:31:44.934Z,4.86
2023-03-10T15:34:12.099Z,4.80
2023-03-10T15:36:39.397Z,4.68
2023-03-10T15:39:06.453Z,4.66
2023-03-10T15:41:38.539Z,4.62
2023-03-10T15:44:06.809Z,4.57
2023-03-10T15:46:34.100Z,4.52
2023-03-10T15:49:03.575Z,4.47
2023-03-10T15:51:30.700Z,4.42
2023-03-10T15:53:57.878Z,4.35
2023-03-10T15:56:26.115Z,4.32
2023-03-10T15:58:53.397Z,4.19
2023-03-10T16:01:21.187Z,4.05
2023-03-10T16:03:51.601Z,3.98
2023-03-10T16:06:18.769Z,3.94
2023-03-10T16:08:47.272Z,3.88
2023-03-10T16:11:20.354Z,3.82
2023-03-10T16:13:49.795Z,3.72
2023-03-10T16:16:18.852Z,3.71
2023-03-10T16:18:47.558Z,3.64
2023-03-10T16:21:17.503Z,3.56
2023-03-10T16:23:45.007Z,3.49
2023-03-10T16:26:14.639Z,3.47
2023-03-10T16:28:44.423Z,3.46
2023-03-10T16:31:13.558Z,3.50
2023-03-10T16:33:41.326Z,3.55
2023-03-10T16:36:13.296Z,3.57
2023-03-10T16:38:40.616Z,3.57
2023-03-10T16:41:09.792Z,3.64
2023-03-10T16:43:37.260Z,3.65
2023-03-10T16:46:30.314Z,3.68
2023-03-10T16:48:58.900Z,3.70
2023-03-10T16:51:30.582Z,3.71
2023-03-10T16:54:03.321Z,3.72
2023-03-10T16:56:32.249Z,3.71
2023-03-10T16:58:59.617Z,3.65
2023-03-10T17:01:27.516Z,3.68
2023-03-10T17:03:55.453Z,3.69
2023-03-10T17:06:28.885Z,3.70
2023-03-10T17:08:56.765Z,3.72
2023-03-10T17:11:29.498Z,3.72
2023-03-10T17:13:59.789Z,3.72
2023-03-10T17:16:29.645Z,3.68
2023-03-10T17:18:58.779Z,3.69
2023-03-10T17:21:28.723Z,3.70
2023-03-10T17:23:56.212Z,3.71
2023-03-10T17:26:23.636Z,3.70
2023-03-10T17:28:52.115Z,3.71
2023-03-10T17:31:23.774Z,3.73
2023-03-10T17:33:50.915Z,3.69
2023-03-10T17:36:19.078Z,3.76
2023-03-10T17:38:46.279Z,3.74
2023-03-10T17:41:16.201Z,3.71
2023-03-10T17:43:43.546Z,3.73
2023-03-10T17:46:19.415Z,3.76
2023-03-10T17:48:47.274Z,3.78
2023-03-10T17:51:16.454Z,3.78
2023-03-10T17:53:44.572Z,3.78
2023-03-10T17:56:12.657Z,3.79
2023-03-10T17:58:40.108Z,3.79
2023-03-10T18:01:15.671Z,3.80
2023-03-10T18:03:42.918Z,3.83
2023-03-10T18:06:15.345Z,3.84
2023-03-10T18:08:42.720Z,3.85
2023-03-10T18:11:10.547Z,3.86
2023-03-10T18:13:38.156Z,3.84
2023-03-10T18:16:06.309Z,3.87
2023-03-10T18:18:33.962Z,3.81
2023-03-10T18:21:01.045Z,3.88
2023-03-10T18:23:28.215Z,3.90
2023-03-10T18:25:55.358Z,3.92
2023-03-10T18:28:23.651Z,3.94
2023-03-10T18:30:52.230Z,3.95
2023-03-10T18:33:19.677Z,3.95
2023-03-10T18:35:47.796Z,3.96
2023-03-10T18:38:16.877Z,3.97
2023-03-10T18:40:44.716Z,3.99
2023-03-10T18:43:11.846Z,4.00
2023-03-10T18:45:44.748Z,3.99
2023-03-10T18:48:11.876Z,4.02
2023-03-10T18:50:38.951Z,4.01
2023-03-10T18:53:06.018Z,3.99
2023-03-10T18:55:33.125Z,4.00
2023-03-10T18:58:00.242Z,3.99
2023-03-10T19:00:27.778Z,4.00
2023-03-10T19:02:54.934Z,4.03
2023-03-10T19:05:22.308Z,4.00
2023-03-10T19:07:49.410Z,4.03
2023-03-10T19:10:18.627Z,4.03
2023-03-10T19:12:46.227Z,4.02
2023-03-10T19:15:15.843Z,4.02
2023-03-10T19:17:43.118Z,3.97
2023-03-10T19:20:13.346Z,3.94
2023-03-10T19:22:42.344Z,3.88
2023-03-10T19:25:12.385Z,3.88
2023-03-10T19:27:40.829Z,3.87
2023-03-10T19:30:11.515Z,3.82
2023-03-10T19:32:39.766Z,3.86
2023-03-10T19:35:09.116Z,3.85
2023-03-10T19:37:37.868Z,3.80
2023-03-10T19:40:08.655Z,3.83
2023-03-10T19:42:38.739Z,3.80
2023-03-10T19:45:06.756Z,3.82
2023-03-10T19:47:34.007Z,3.81
2023-03-10T19:50:01.156Z,3.82
2023-03-10T19:52:28.317Z,3.82
2023-03-10T19:54:55.430Z,3.83
2023-03-10T19:57:23.359Z,3.84
2023-03-10T19:59:50.417Z,3.82
2023-03-10T20:02:18.454Z,3.87
2023-03-10T20:04:45.866Z,3.87
2023-03-10T20:07:13.053Z,3.82
2023-03-10T20:09:40.277Z,3.88
2023-03-10T20:12:07.387Z,3.88
2023-03-10T20:14:34.524Z,3.88
2023-03-10T20:17:01.715Z,3.86
2023-03-10T20:19:28.867Z,3.91
2023-03-10T20:21:55.888Z,3.90
2023-03-10T20:24:23.199Z,3.87
2023-03-10T20:26:50.424Z,3.83
2023-03-10T20:29:17.628Z,3.81
2023-03-10T20:31:44.819Z,3.79
2023-03-10T20:34:17.718Z,3.77
2023-03-10T20:36:45.954Z,3.77
2023-03-10T20:39:13.269Z,3.74
2023-03-10T20:41:40.360Z,3.70
2023-03-10T20:44:09.746Z,3.69
2023-03-10T20:46:36.784Z,3.65
2023-03-10T20:49:06.081Z,3.59
2023-03-10T20:51:33.189Z,3.55
2023-03-10T20:54:00.402Z,3.54
2023-03-10T20:56:28.842Z,3.54
2023-03-10T20:58:59.717Z,3.54
2023-03-10T21:01:27.381Z,3.48
2023-03-10T21:03:55.072Z,3.52
2023-03-10T21:06:27.321Z,3.51
2023-03-10T21:08:54.426Z,3.51
2023-03-10T21:11:21.901Z,3.45
2023-03-10T21:13:49.266Z,3.46
2023-03-10T21:16:16.391Z,3.46
2023-03-10T21:18:43.571Z,3.45
2023-03-10T21:21:10.821Z,3.44
2023-03-10T21:23:41.794Z,3.45
2023-03-10T21:26:17.186Z,3.44
2023-03-10T21:28:44.912Z,3.43
2023-03-10T21:31:12.550Z,3.37
2023-03-10T21:33:41.978Z,3.44
2023-03-10T21:36:16.771Z,3.43
2023-03-10T21:38:44.597Z,3.44
2023-03-10T21:41:15.776Z,3.44
2023-03-10T21:43:42.986Z,3.44
2023-03-10T21:46:10.220Z,3.44
2023-03-10T21:48:37.592Z,3.44
2023-03-10T21:51:05.119Z,3.40
2023-03-10T21:53:32.527Z,3.42
2023-03-10T21:56:00.955Z,3.42
2023-03-10T21:58:28.064Z,3.40
2023-03-10T22:00:56.366Z,3.42
2023-03-10T22:03:23.839Z,3.40
2023-03-10T22:05:50.872Z,3.42
2023-03-10T22:08:18.076Z,3.38
2023-03-10T22:10:46.236Z,3.36
2023-03-10T22:13:13.431Z,3.33
2023-03-10T22:15:40.846Z,3.33
2023-03-10T22:18:08.360Z,3.33
2023-03-10T22:20:35.717Z,3.32
2023-03-10T22:23:02.814Z,3.28
2023-03-10T22:25:29.829Z,3.29
2023-03-10T22:27:57.509Z,3.29
2023-03-10T22:30:26.392Z,3.29
2023-03-10T22:32:54.324Z,3.23
2023-03-10T22:35:21.596Z,3.21
2023-03-10T22:37:49.822Z,3.10
2023-03-10T22:40:20.029Z,3.13
2023-03-10T22:42:47.524Z,3.09
2023-03-10T22:45:24.228Z,3.00
2023-03-10T22:47:55.756Z,3.06
2023-03-10T22:50:26.573Z,3.05
2023-03-10T22:52:53.753Z,2.97
2023-03-10T22:55:26.507Z,2.98
2023-03-10T22:57:53.870Z,2.97
2023-03-10T23:00:22.649Z,2.97
2023-03-10T23:02:52.399Z,2.94
2023-03-10T23:05:20.637Z,2.96
2023-03-10T23:07:48.252Z,2.94
2023-03-10T23:10:19.775Z,2.93
2023-03-10T23:12:46.859Z,2.90
2023-03-10T23:15:27.678Z,2.88
2023-03-10T23:17:56.293Z,2.87
2023-03-10T23:20:27.573Z,2.88
2023-03-10T23:22:56.846Z,2.85
2023-03-10T23:25:33.696Z,2.83
2023-03-10T23:28:02.170Z,2.84
2023-03-10T23:30:31.132Z,2.80
2023-03-10T23:32:58.648Z,2.80
2023-03-10T23:35:31.199Z,2.79
2023-03-10T23:38:00.462Z,2.80
2023-03-10T23:40:28.602Z,2.77
2023-03-10T23:42:57.536Z,2.69
2023-03-10T23:45:26.496Z,2.74
2023-03-10T23:47:55.703Z,2.75
2023-03-10T23:50:26.456Z,2.73
2023-03-10T23:52:53.943Z,2.75
2023-03-10T23:55:27.678Z,2.73
2023-03-10T23:57:54.857Z,2.70
